createdAt,value
2018-10-05T00:01:36.694Z,100.00
2018-10-05T00:04:07.590Z,100.00
2018-10-05T00:06:36.990Z,100.00
2018-10-05T00:09:11.918Z,100.00
2018-10-05T00:11:41.411Z,100.00
2018-10-05T00:14:10.439Z,100.00
2018-10-05T00:16:39.635Z,100.00
2018-10-05T00:19:09.261Z,100.00
2018-10-05T00:21:38.399Z,100.00
2018-10-05T00:24:08.366Z,100.00
2018-10-05T00:26:37.514Z,100.00
2018-10-05T00:29:06.706Z,100.00
2018-10-05T00:31:35.845Z,100.00
2018-10-05T00:34:05.059Z,100.00
2018-10-05T00:36:34.987Z,100.00
2018-10-05T00:39:05.150Z,100.00
2018-10-05T00:41:34.514Z,100.00
2018-10-05T00:44:03.679Z,100.00
2018-10-05T00:46:32.851Z,100.00
2018-10-05T00:49:01.966Z,100.00
2018-10-05T00:51:31.122Z,100.00
2018-10-05T00:54:00.290Z,100.00
2018-10-05T00:56:29.538Z,100.00
2018-10-05T00:58:58.759Z,100.00
2018-10-05T01:01:28.165Z,100.00
2018-10-05T01:03:57.274Z,100.00
2018-10-05T01:06:26.420Z,100.00
2018-10-05T01:08:55.586Z,100.00
2018-10-05T01:11:24.807Z,100.00
2018-10-05T01:13:53.926Z,100.00
2018-10-05T01:16:23.074Z,100.00
2018-10-05T01:18:52.213Z,100.00
2018-10-05T01:21:21.466Z,100.00
2018-10-05T01:23:50.715Z,100.00
2018-10-05T01:26:20.022Z,100.00
2018-10-05T01:28:49.272Z,100.00
2018-10-05T01:31:18.522Z,100.00
2018-10-05T01:33:48.076Z,100.00
2018-10-05T01:36:17.865Z,100.00
2018-10-05T01:38:47.161Z,100.00
2018-10-05T01:41:16.329Z,100.00
2018-10-05T01:43:45.754Z,100.00
2018-10-05T01:46:15.183Z,100.00
2018-10-05T01:48:44.895Z,100.00
2018-10-05T01:51:14.917Z,100.00
2018-10-05T01:53:44.070Z,100.00
2018-10-05T01:56:13.242Z,100.00
2018-10-05T01:58:43.082Z,100.00
2018-10-05T02:01:12.215Z,100.00
2018-10-05T02:03:41.366Z,100.00
2018-10-05T02:06:10.650Z,100.00
2018-10-05T02:08:39.891Z,100.00
2018-10-05T02:11:09.583Z,100.00
2018-10-05T02:13:39.215Z,100.00
2018-10-05T02:16:08.750Z,100.00
2018-10-05T02:18:38.340Z,100.00
2018-10-05T02:21:07.795Z,100.00
2018-10-05T02:23:37.039Z,100.00
2018-10-05T02:26:06.395Z,100.00
2018-10-05T02:28:35.530Z,100.00
2018-10-05T02:31:04.659Z,100.00
2018-10-05T02:33:33.831Z,100.00
2018-10-05T02:36:03.467Z,100.00
2018-10-05T02:38:33.109Z,100.00
2018-10-05T02:41:02.547Z,100.00
2018-10-05T02:43:31.751Z,100.00
2018-10-05T02:46:00.868Z,100.00
2018-10-05T02:48:29.981Z,100.00
2018-10-05T02:50:59.122Z,100.00
2018-10-05T02:53:28.262Z,100.00
2018-10-05T02:55:58.854Z,100.00
2018-10-05T02:58:27.997Z,100.00
2018-10-05T03:01:14.190Z,100.00
2018-10-05T03:03:44.178Z,100.00
2018-10-05T03:06:14.085Z,100.00
2018-10-05T03:08:43.421Z,100.00
2018-10-05T03:11:12.818Z,100.00
2018-10-05T03:13:41.957Z,100.00
2018-10-05T03:16:11.193Z,100.00
2018-10-05T03:18:40.358Z,100.00
2018-10-05T03:21:09.482Z,100.00
2018-10-05T03:23:38.795Z,100.00
2018-10-05T03:26:07.962Z,100.00
2018-10-05T03:28:37.125Z,100.00
2018-10-05T03:31:07.494Z,100.00
2018-10-05T03:33:36.619Z,100.00
2018-10-05T03:36:05.734Z,100.00
2018-10-05T03:38:35.506Z,100.00
2018-10-05T03:41:04.665Z,100.00
2018-10-05T03:43:33.854Z,100.00
2018-10-05T03:46:02.978Z,100.00
2018-10-05T03:48:32.534Z,100.00
2018-10-05T03:51:01.831Z,100.00
2018-10-05T03:53:30.985Z,100.00
2018-10-05T03:56:00.242Z,100.00
2018-10-05T03:58:29.485Z,100.00
2018-10-05T04:00:58.654Z,100.00
2018-10-05T04:03:27.778Z,100.00
2018-10-05T04:05:56.998Z,100.00
2018-10-05T04:08:26.954Z,100.00
2018-10-05T04:10:56.078Z,100.00
2018-10-05T04:13:25.433Z,100.00
2018-10-05T04:15:54.719Z,100.00
2018-10-05T04:18:24.465Z,100.00
2018-10-05T04:20:53.698Z,100.00
2018-10-05T04:23:24.206Z,100.00
2018-10-05T04:25:53.772Z,100.00
2018-10-05T04:28:22.917Z,100.00
2018-10-05T04:30:52.302Z,100.00
2018-10-05T04:33:23.916Z,100.00
2018-10-05T04:35:53.036Z,100.00
2018-10-05T04:38:22.629Z,100.00
2018-10-05T04:40:51.870Z,100.00
2018-10-05T04:43:21.374Z,100.00
2018-10-05T04:45:53.554Z,100.00
2018-10-05T04:48:23.226Z,100.00
2018-10-05T04:50:52.419Z,100.00
2018-10-05T04:53:21.626Z,100.00
2018-10-05T04:55:50.741Z,100.00
2018-10-05T04:58:20.582Z,100.00
2018-10-05T05:00:49.750Z,100.00
2018-10-05T05:03:18.900Z,100.00
2018-10-05T05:05:48.210Z,100.00
2018-10-05T05:08:17.771Z,100.00
2018-10-05T05:10:49.551Z,100.00
2018-10-05T05:13:19.314Z,100.00
2018-10-05T05:15:50.118Z,100.00
2018-10-05T05:18:19.437Z,100.00
2018-10-05T05:20:48.745Z,100.00
2018-10-05T05:23:17.535Z,100.00
2018-10-05T05:25:46.746Z,100.00
2018-10-05T05:28:16.033Z,100.00
2018-10-05T05:30:44.866Z,100.00
2018-10-05T05:33:14.087Z,100.00
2018-10-05T05:35:43.638Z,100.00
2018-10-05T05:38:12.750Z,100.00
2018-10-05T05:40:44.229Z,100.00
2018-10-05T05:43:13.378Z,100.00
2018-10-05T05:45:42.518Z,100.00
2018-10-05T05:48:11.770Z,100.00
2018-10-05T05:50:40.894Z,100.00
2018-10-05T05:53:10.038Z,100.00
2018-10-05T05:55:40.454Z,100.00
2018-10-05T05:58:09.581Z,100.00
2018-10-05T06:00:39.049Z,100.00
2018-10-05T06:03:08.242Z,100.00
2018-10-05T06:05:37.366Z,100.00
2018-10-05T06:08:06.515Z,100.00
2018-10-05T06:10:35.642Z,100.00
2018-10-05T06:13:04.802Z,100.00
2018-10-05T06:15:33.925Z,100.00
2018-10-05T06:18:03.119Z,100.00
2018-10-05T06:20:32.577Z,100.00
2018-10-05T06:23:01.735Z,100.00
2018-10-05T06:25:30.933Z,100.00
2018-10-05T06:28:00.233Z,100.00
2018-10-05T06:30:29.401Z,100.00
2018-10-05T06:32:58.547Z,100.00
2018-10-05T06:35:27.661Z,100.00
2018-10-05T06:37:56.854Z,100.00
2018-10-05T06:40:26.698Z,100.00
2018-10-05T06:42:55.935Z,100.00
2018-10-05T06:45:25.114Z,100.00
2018-10-05T06:47:54.321Z,100.00
2018-10-05T06:50:23.560Z,100.00
2018-10-05T06:52:53.549Z,100.00
2018-10-05T06:55:23.046Z,100.00
2018-10-05T06:57:52.189Z,100.00
2018-10-05T07:00:21.318Z,100.00
2018-10-05T07:02:50.938Z,100.00
2018-10-05T07:05:20.479Z,97.75
2018-10-05T07:07:49.743Z,86.27
2018-10-05T07:10:18.799Z,88.99
2018-10-05T07:12:47.942Z,85.54
2018-10-05T07:15:17.079Z,70.94
2018-10-05T07:17:46.208Z,72.32
2018-10-05T07:20:15.427Z,70.91
2018-10-05T07:22:45.277Z,65.77
2018-10-05T07:25:15.041Z,65.30
2018-10-05T07:27:44.285Z,67.21
2018-10-05T07:30:14.326Z,60.42
2018-10-05T07:32:43.566Z,56.20
2018-10-05T07:35:12.985Z,53.56
2018-10-05T07:37:42.127Z,54.55
2018-10-05T07:40:11.390Z,52.11
2018-10-05T07:42:40.610Z,51.31
2018-10-05T07:45:09.742Z,48.53
2018-10-05T07:47:38.907Z,48.29
2018-10-05T07:50:08.089Z,45.19
2018-10-05T07:52:37.231Z,42.60
2018-10-05T07:55:06.354Z,41.50
2018-10-05T07:57:35.633Z,41.09
2018-10-05T08:00:04.806Z,38.55
2018-10-05T08:02:33.955Z,36.67
2018-10-05T08:05:03.654Z,34.18
2018-10-05T08:07:32.866Z,36.15
2018-10-05T08:10:02.026Z,36.70
2018-10-05T08:12:31.257Z,38.53
2018-10-05T08:15:00.406Z,38.64
2018-10-05T08:17:29.566Z,37.44
2018-10-05T08:19:58.709Z,42.80
2018-10-05T08:22:28.521Z,40.88
2018-10-05T08:24:57.676Z,38.25
2018-10-05T08:27:26.814Z,38.62
2018-10-05T08:29:56.329Z,35.65
2018-10-05T08:32:25.610Z,35.22
2018-10-05T08:34:54.730Z,35.26
2018-10-05T08:37:23.885Z,34.55
2018-10-05T08:39:53.107Z,33.45
2018-10-05T08:42:22.457Z,32.97
2018-10-05T08:44:52.577Z,37.19
2018-10-05T08:47:22.165Z,41.29
2018-10-05T08:49:51.781Z,44.80
2018-10-05T08:52:20.529Z,49.17
2018-10-05T08:54:49.653Z,40.67
2018-10-05T08:57:18.794Z,34.71
2018-10-05T08:59:47.971Z,30.88
2018-10-05T09:02:17.097Z,30.65
2018-10-05T09:04:46.338Z,29.51
2018-10-05T09:07:15.499Z,28.05
2018-10-05T09:09:44.645Z,28.67
2018-10-05T09:12:13.789Z,29.12
2018-10-05T09:14:42.922Z,30.18
2018-10-05T09:17:12.166Z,33.22
2018-10-05T09:19:41.331Z,35.14
2018-10-05T09:22:10.409Z,31.07
2018-10-05T09:24:39.530Z,30.97
2018-10-05T09:27:08.682Z,34.86
2018-10-05T09:29:38.234Z,29.09
2018-10-05T09:32:07.362Z,27.16
2018-10-05T09:34:36.484Z,24.54
2018-10-05T09:37:05.634Z,23.37
2018-10-05T09:39:34.770Z,25.12
2018-10-05T09:42:03.881Z,25.62
2018-10-05T09:44:33.101Z,23.91
2018-10-05T09:47:02.273Z,22.21
2018-10-05T09:49:31.398Z,22.42
2018-10-05T09:52:00.617Z,23.41
2018-10-05T09:54:29.725Z,22.67
2018-10-05T09:56:58.846Z,24.81
2018-10-05T09:59:28.250Z,24.08
2018-10-05T10:02:02.851Z,22.48
2018-10-05T10:04:31.989Z,23.67
2018-10-05T10:07:01.122Z,24.94
2018-10-05T10:09:30.270Z,25.65
2018-10-05T10:11:59.405Z,24.55
2018-10-05T10:14:28.539Z,24.49
2018-10-05T10:16:57.670Z,21.68
2018-10-05T10:19:26.858Z,19.73
2018-10-05T10:21:55.969Z,17.61
2018-10-05T10:24:25.303Z,16.93
2018-10-05T10:26:54.642Z,18.00
2018-10-05T10:29:23.824Z,18.09
2018-10-05T10:31:52.962Z,17.14
2018-10-05T10:34:22.150Z,16.13
2018-10-05T10:36:51.333Z,15.03
2018-10-05T10:39:20.494Z,13.81
2018-10-05T10:41:49.674Z,13.74
2018-10-05T10:44:18.861Z,14.56
2018-10-05T10:46:48.015Z,16.49
2018-10-05T10:49:17.211Z,15.38
2018-10-05T10:51:46.571Z,15.64
2018-10-05T10:54:15.770Z,14.92
2018-10-05T10:56:45.366Z,16.97
2018-10-05T10:59:14.513Z,14.57
2018-10-05T11:01:43.705Z,14.43
2018-10-05T11:04:12.841Z,15.10
2018-10-05T11:06:42.191Z,17.62
2018-10-05T11:09:11.385Z,17.16
2018-10-05T11:11:40.497Z,22.38
2018-10-05T11:14:09.654Z,27.88
2018-10-05T11:16:38.822Z,28.46
2018-10-05T11:19:10.219Z,27.07
2018-10-05T11:21:39.366Z,21.56
2018-10-05T11:24:08.834Z,20.01
2018-10-05T11:26:38.018Z,21.89
2018-10-05T11:29:07.127Z,20.39
2018-10-05T11:31:36.269Z,19.62
2018-10-05T11:34:05.417Z,17.18
2018-10-05T11:36:35.246Z,15.28
2018-10-05T11:39:05.157Z,14.63
2018-10-05T11:41:35.054Z,15.32
2018-10-05T11:44:06.038Z,15.97
2018-10-05T11:46:35.531Z,15.29
2018-10-05T11:49:05.886Z,14.76
2018-10-05T11:51:35.473Z,21.50
2018-10-05T11:54:04.634Z,23.43
2018-10-05T11:56:33.765Z,27.11
2018-10-05T11:59:02.622Z,22.61
2018-10-05T12:01:32.777Z,18.03
2018-10-05T12:04:01.926Z,16.22
2018-10-05T12:06:32.590Z,15.96
2018-10-05T12:09:01.399Z,20.49
2018-10-05T12:11:30.549Z,19.09
2018-10-05T12:13:59.706Z,17.43
2018-10-05T12:16:29.473Z,16.86
2018-10-05T12:18:59.027Z,19.29
2018-10-05T12:21:28.830Z,17.42
2018-10-05T12:23:58.806Z,17.04
2018-10-05T12:26:28.824Z,14.74
2018-10-05T12:28:57.592Z,13.97
2018-10-05T12:31:26.713Z,16.11
2018-10-05T12:33:58.121Z,20.32
2018-10-05T12:36:27.258Z,18.81
2018-10-05T12:38:56.390Z,21.61
2018-10-05T12:41:25.653Z,26.54
2018-10-05T12:43:54.845Z,34.43
2018-10-05T12:46:24.010Z,38.73
2018-10-05T12:48:53.417Z,39.91
2018-10-05T12:51:22.990Z,41.92
2018-10-05T12:53:53.846Z,43.51
2018-10-05T12:56:23.471Z,44.14
2018-10-05T12:58:53.403Z,46.10
2018-10-05T13:01:22.529Z,48.60
2018-10-05T13:03:51.685Z,48.94
2018-10-05T13:06:20.568Z,49.62
2018-10-05T13:08:49.966Z,49.54
2018-10-05T13:11:20.226Z,49.67
2018-10-05T13:13:49.350Z,50.56
2018-10-05T13:16:18.914Z,51.76
2018-10-05T13:18:48.070Z,49.46
2018-10-05T13:21:17.154Z,49.54
2018-10-05T13:23:46.386Z,50.28
2018-10-05T13:26:15.742Z,51.02
2018-10-05T13:28:46.807Z,50.58
2018-10-05T13:31:16.565Z,50.73
2018-10-05T13:33:45.738Z,49.71
2018-10-05T13:36:15.692Z,49.92
2018-10-05T13:38:45.608Z,49.83
2018-10-05T13:41:14.869Z,50.35
2018-10-05T13:43:44.638Z,49.82
2018-10-05T13:46:14.451Z,50.15
2018-10-05T13:48:43.694Z,50.45
2018-10-05T13:51:13.378Z,49.11
2018-10-05T13:53:42.639Z,47.74
2018-10-05T13:56:11.546Z,48.66
2018-10-05T13:58:40.698Z,48.43
2018-10-05T14:01:10.094Z,48.63
2018-10-05T14:03:39.246Z,48.39
2018-10-05T14:06:08.550Z,47.46
2018-10-05T14:08:37.718Z,47.71
2018-10-05T14:11:07.125Z,48.64
2018-10-05T14:13:37.014Z,48.00
2018-10-05T14:16:06.917Z,47.38
2018-10-05T14:18:35.030Z,48.38
2018-10-05T14:21:04.190Z,47.41
2018-10-05T14:23:33.375Z,47.27
2018-10-05T14:26:02.498Z,47.74
2018-10-05T14:28:31.747Z,47.75
2018-10-05T14:31:00.398Z,48.06
2018-10-05T14:33:29.534Z,48.28
2018-10-05T14:35:58.661Z,48.05
2018-10-05T14:38:27.778Z,48.51
2018-10-05T14:40:56.935Z,47.81
2018-10-05T14:43:26.054Z,47.39
2018-10-05T14:45:55.304Z,46.71
2018-10-05T14:48:26.338Z,46.27
2018-10-05T14:50:55.506Z,47.30
2018-10-05T14:53:24.842Z,47.24
2018-10-05T14:55:53.971Z,47.44
2018-10-05T14:58:23.291Z,46.74
2018-10-05T15:00:53.098Z,47.41
2018-10-05T15:03:23.810Z,48.60
2018-10-05T15:05:52.977Z,47.44
2018-10-05T15:08:22.562Z,47.00
2018-10-05T15:10:51.826Z,47.25
2018-10-05T15:13:26.042Z,47.76
2018-10-05T15:15:55.277Z,48.67
2018-10-05T15:18:24.954Z,48.33
2018-10-05T15:20:54.667Z,49.29
2018-10-05T15:23:23.985Z,49.30
2018-10-05T15:25:53.767Z,49.92
2018-10-05T15:28:25.210Z,50.79
2018-10-05T15:30:54.585Z,51.84
2018-10-05T15:33:24.446Z,52.30
2018-10-05T15:35:54.309Z,52.37
2018-10-05T15:38:23.662Z,52.23
2018-10-05T15:40:53.393Z,54.20
2018-10-05T15:43:23.742Z,54.22
2018-10-05T15:46:08.515Z,53.33
2018-10-05T15:48:37.958Z,52.01
2018-10-05T15:51:07.726Z,53.06
2018-10-05T15:53:37.734Z,54.25
2018-10-05T15:56:07.566Z,54.74
2018-10-05T15:58:40.828Z,55.68
2018-10-05T16:01:09.966Z,56.54
2018-10-05T16:03:39.330Z,56.59
2018-10-05T16:06:08.990Z,56.76
2018-10-05T16:08:38.372Z,57.45
2018-10-05T16:11:07.902Z,58.16
2018-10-05T16:13:37.950Z,59.57
2018-10-05T16:16:07.854Z,59.80
2018-10-05T16:18:38.046Z,59.38
2018-10-05T16:21:07.613Z,59.75
2018-10-05T16:23:37.538Z,59.80
2018-10-05T16:26:07.058Z,60.54
2018-10-05T16:28:36.536Z,60.60
2018-10-05T16:31:06.545Z,61.64
2018-10-05T16:33:35.801Z,61.68
2018-10-05T16:36:05.822Z,62.42
2018-10-05T16:38:35.723Z,63.17
2018-10-05T16:41:05.186Z,62.97
2018-10-05T16:43:34.568Z,62.88
2018-10-05T16:46:03.305Z,62.27
2018-10-05T16:48:32.474Z,63.71
2018-10-05T16:51:01.603Z,64.21
2018-10-05T16:53:31.342Z,65.21
2018-10-05T16:56:00.538Z,64.83
2018-10-05T16:58:31.394Z,65.66
2018-10-05T17:01:00.515Z,66.06
2018-10-05T17:03:29.684Z,67.31
2018-10-05T17:05:59.060Z,68.30
2018-10-05T17:08:29.755Z,69.53
2018-10-05T17:10:59.078Z,71.16
2018-10-05T17:13:28.386Z,71.80
2018-10-05T17:15:57.569Z,73.27
2018-10-05T17:18:26.788Z,74.26
2018-10-05T17:20:55.977Z,74.35
2018-10-05T17:23:25.568Z,74.84
2018-10-05T17:25:54.660Z,75.60
2018-10-05T17:28:24.363Z,76.35
2018-10-05T17:30:54.246Z,76.67
2018-10-05T17:33:23.665Z,76.68
2018-10-05T17:35:53.124Z,77.41
2018-10-05T17:38:22.673Z,78.30
2018-10-05T17:40:51.577Z,78.70
2018-10-05T17:43:20.710Z,79.14
2018-10-05T17:45:49.833Z,79.52
2018-10-05T17:48:18.978Z,80.55
2018-10-05T17:50:48.114Z,80.90
2018-10-05T17:53:17.233Z,81.16
2018-10-05T17:55:46.416Z,81.81
2018-10-05T17:58:17.914Z,82.46
2018-10-05T18:00:48.691Z,83.40
2018-10-05T18:03:18.637Z,84.64
2018-10-05T18:05:48.449Z,86.29
2018-10-05T18:08:17.918Z,87.35
2018-10-05T18:10:47.202Z,87.45
2018-10-05T18:13:16.577Z,88.89
2018-10-05T18:15:48.183Z,89.53
2018-10-05T18:18:18.481Z,88.58
2018-10-05T18:20:48.030Z,87.98
2018-10-05T18:23:17.503Z,88.60
2018-10-05T18:25:47.042Z,88.52
2018-10-05T18:28:16.488Z,88.02
2018-10-05T18:30:45.746Z,87.65
2018-10-05T18:33:15.062Z,88.57
2018-10-05T18:35:44.198Z,89.84
2018-10-05T18:38:14.058Z,90.47
2018-10-05T18:40:44.061Z,90.35
2018-10-05T18:43:13.346Z,91.57
2018-10-05T18:45:42.846Z,92.58
2018-10-05T18:48:11.991Z,92.47
2018-10-05T18:50:41.135Z,92.26
2018-10-05T18:53:10.266Z,93.42
2018-10-05T18:55:39.598Z,94.08
2018-10-05T18:58:09.774Z,92.97
2018-10-05T19:00:39.263Z,91.96
2018-10-05T19:03:08.935Z,92.18
2018-10-05T19:05:38.257Z,92.57
2018-10-05T19:08:08.101Z,92.42
2018-10-05T19:10:39.029Z,91.84
2018-10-05T19:13:08.472Z,93.20
2018-10-05T19:15:39.137Z,94.48
2018-10-05T19:18:08.723Z,95.78
2018-10-05T19:20:38.174Z,96.27
2018-10-05T19:23:07.062Z,96.82
2018-10-05T19:25:36.242Z,97.80
2018-10-05T19:28:05.479Z,98.46
2018-10-05T19:30:34.978Z,99.15
2018-10-05T19:33:04.483Z,100.00
2018-10-05T19:35:33.374Z,99.35
2018-10-05T19:38:02.810Z,98.42
2018-10-05T19:40:31.550Z,99.00
2018-10-05T19:43:00.678Z,99.32
2018-10-05T19:45:30.233Z,99.19
2018-10-05T19:48:03.554Z,99.40
2018-10-05T19:50:33.709Z,99.42
2018-10-05T19:53:03.010Z,99.62
2018-10-05T19:55:32.338Z,100.00
2018-10-05T19:58:01.478Z,100.00
2018-10-05T20:00:31.402Z,100.00
2018-10-05T20:03:00.530Z,100.00
2018-10-05T20:05:29.909Z,100.00
2018-10-05T20:07:59.433Z,100.00
2018-10-05T20:10:31.075Z,100.00
2018-10-05T20:13:01.018Z,100.00
2018-10-05T20:15:30.438Z,100.00
2018-10-05T20:18:00.129Z,100.00
2018-10-05T20:20:29.289Z,100.00
2018-10-05T20:22:59.122Z,100.00
2018-10-05T20:25:28.373Z,100.00
2018-10-05T20:27:58.129Z,100.00
2018-10-05T20:30:27.423Z,100.00
2018-10-05T20:32:57.198Z,100.00
2018-10-05T20:35:27.066Z,100.00
2018-10-05T20:37:56.318Z,100.00
2018-10-05T20:40:25.581Z,100.00
2018-10-05T20:42:55.078Z,100.00
2018-10-05T20:45:24.970Z,100.00
2018-10-05T20:47:54.238Z,100.00
2018-10-05T20:50:23.830Z,100.00
2018-10-05T20:52:53.469Z,100.00
2018-10-05T20:55:23.850Z,100.00
2018-10-05T20:57:53.019Z,100.00
2018-10-05T21:00:22.807Z,100.00
2018-10-05T21:02:51.957Z,100.00
2018-10-05T21:05:21.430Z,100.00
2018-10-05T21:07:50.929Z,100.00
2018-10-05T21:10:20.129Z,100.00
2018-10-05T21:12:50.758Z,100.00
2018-10-05T21:15:20.652Z,100.00
2018-10-05T21:17:50.187Z,100.00
2018-10-05T21:20:19.557Z,100.00
2018-10-05T21:22:49.728Z,100.00
2018-10-05T21:25:19.991Z,100.00
2018-10-05T21:27:49.590Z,100.00
2018-10-05T21:30:18.929Z,100.00
2018-10-05T21:32:48.545Z,100.00
2018-10-05T21:35:17.851Z,100.00
2018-10-05T21:37:46.878Z,100.00
2018-10-05T21:40:16.166Z,100.00
2018-10-05T21:42:45.395Z,100.00
2018-10-05T21:45:14.773Z,100.00
2018-10-05T21:47:44.702Z,100.00
2018-10-05T21:50:14.270Z,100.00
2018-10-05T21:52:43.730Z,100.00
2018-10-05T21:55:13.047Z,100.00
2018-10-05T21:57:42.366Z,100.00
2018-10-05T22:00:11.666Z,100.00
2018-10-05T22:02:43.438Z,100.00
2018-10-05T22:05:12.853Z,100.00
2018-10-05T22:07:42.217Z,100.00
2018-10-05T22:10:12.058Z,100.00
2018-10-05T22:12:41.426Z,100.00
2018-10-05T22:15:10.818Z,100.00
2018-10-05T22:17:40.459Z,100.00
2018-10-05T22:20:10.456Z,100.00
2018-10-05T22:22:39.817Z,100.00
2018-10-05T22:25:09.194Z,100.00
2018-10-05T22:27:39.281Z,100.00
2018-10-05T22:30:09.463Z,100.00
2018-10-05T22:32:39.115Z,100.00
2018-10-05T22:35:09.366Z,100.00
2018-10-05T22:37:38.942Z,100.00
2018-10-05T22:40:08.290Z,100.00
2018-10-05T22:42:37.640Z,100.00
2018-10-05T22:45:07.853Z,100.00
2018-10-05T22:47:37.837Z,100.00
2018-10-05T22:50:07.114Z,100.00
2018-10-05T22:52:36.181Z,100.00
2018-10-05T22:55:05.580Z,100.00
2018-10-05T22:57:35.027Z,100.00
2018-10-05T23:00:05.309Z,100.00
2018-10-05T23:02:37.670Z,100.00
2018-10-05T23:05:07.454Z,100.00
2018-10-05T23:07:36.623Z,100.00
2018-10-05T23:10:06.739Z,100.00
2018-10-05T23:12:36.518Z,100.00
2018-10-05T23:15:06.421Z,100.00
2018-10-05T23:17:35.550Z,100.00
2018-10-05T23:20:05.013Z,100.00
2018-10-05T23:22:34.401Z,100.00
2018-10-05T23:25:03.983Z,100.00
2018-10-05T23:27:33.870Z,100.00
2018-10-05T23:30:03.234Z,100.00
2018-10-05T23:32:32.872Z,100.00
2018-10-05T23:35:02.030Z,100.00
2018-10-05T23:37:31.172Z,100.00
2018-10-05T23:40:01.046Z,100.00
2018-10-05T23:42:30.206Z,100.00
2018-10-05T23:45:00.485Z,100.00
2018-10-05T23:47:29.853Z,100.00
2018-10-05T23:49:59.089Z,100.00
2018-10-05T23:52:51.858Z,100.00
2018-10-05T23:55:21.862Z,100.00
2018-10-05T23:57:51.789Z,100.00
